Time;durP1;ratioP1;P1;durP2;ratioP2;P2;SDS_P1;SDS_P2;PMS_P1;PMS_P2;Temp;Humidity;BMP_temperature;BMP_pressure;BME280_temperature;BME280_humidity;BME280_pressure;Samples;Min_cycle;Max_cycle;Signal;HPM_P1;HPM_P2
2021/07/21 00:04:26;;;;;;;14.07;6.47;;;;;;;18.47;66.18;99147.44;263119;1093;115728;-68
2021/07/21 00:09:33;;;;;;;9.63;6.03;;;;;;;18.46;65.84;99156.53;263232;1093;114632;-69
2021/07/21 00:14:39;;;;;;;11.90;6.03;;;;;;;18.38;65.95;99152.70;262918;1092;114765;-70
2021/07/21 00:25:09;;;;;;;12.63;6.88;;;;;;;18.27;66.26;99155.52;263078;1092;114876;-69
2021/07/21 00:30:16;;;;;;;9.93;6.40;;;;;;;18.25;66.49;99156.67;262504;1092;114755;-69
2021/07/21 00:35:19;;;;;;;11.17;5.80;;;;;;;18.24;65.94;99161.21;262357;1093;115144;-70
2021/07/21 00:40:23;;;;;;;11.68;6.25;;;;;;;18.23;66.23;99170.27;262331;1092;115304;-68
2021/07/21 00:45:28;;;;;;;11.50;6.13;;;;;;;18.23;66.25;99170.27;263170;1092;115110;-68
2021/07/21 00:50:31;;;;;;;12.88;6.30;;;;;;;18.23;65.96;99174.80;262571;1092;116009;-68
2021/07/21 00:55:36;;;;;;;14.78;7.38;;;;;;;18.18;65.98;99177.93;262982;1093;114626;-71
2021/07/21 01:00:39;;;;;;;17.20;6.73;;;;;;;18.14;66.39;99173.83;262204;1093;114974;-71
2021/07/21 01:05:44;;;;;;;12.80;7.00;;;;;;;18.11;66.27;99177.64;261846;1093;115150;-71
2021/07/21 01:11:26;;;;;;;16.77;6.60;;;;;;;18.13;66.21;99170.25;263297;1093;115205;-69
2021/07/21 01:16:36;;;;;;;17.73;7.38;;;;;;;18.12;66.35;99173.94;263368;1092;115377;-70
2021/07/21 01:22:18;;;;;;;15.03;7.03;;;;;;;18.12;66.18;99173.09;263184;1092;114954;-69
2021/07/21 01:27:29;;;;;;;12.83;7.67;;;;;;;18.06;66.03;99169.11;263147;1092;114964;-65
2021/07/21 01:32:37;;;;;;;18.60;8.13;;;;;;;18.00;66.38;99174.20;262972;1091;114764;-64
2021/07/21 01:37:52;;;;;;;13.57;7.23;;;;;;;17.98;66.46;99168.13;263169;1092;114938;-66
2021/07/21 01:42:59;;;;;;;15.83;7.15;;;;;;;17.96;66.24;99168.24;261765;1093;114937;-67
2021/07/21 01:48:07;;;;;;;20.10;8.23;;;;;;;17.95;66.15;99174.63;262819;1093;114897;-65
2021/07/21 01:53:12;;;;;;;14.17;7.67;;;;;;;17.93;66.17;99168.52;263104;1091;114386;-70
2021/07/21 01:58:18;;;;;;;15.47;7.83;;;;;;;17.90;66.32;99169.67;263206;1092;115492;-67
2021/07/21 02:03:41;;;;;;;15.63;7.30;;;;;;;17.88;66.26;99173.48;262101;1092;114910;-69
2021/07/21 02:08:50;;;;;;;17.50;7.58;;;;;;;17.84;66.15;99175.60;262199;1092;116219;-70
2021/07/21 02:14:01;;;;;;;18.80;7.50;;;;;;;17.83;65.95;99179.30;263242;1091;114992;-68
2021/07/21 02:19:29;;;;;;;14.80;7.20;;;;;;;17.83;66.11;99184.67;263139;1093;115154;-70
2021/07/21 02:25:01;;;;;;;21.33;7.63;;;;;;;17.83;66.11;99187.37;263077;1093;114799;-69
2021/07/21 02:30:13;;;;;;;15.90;7.10;;;;;;;17.83;65.99;99191.88;262580;1092;114700;-68
2021/07/21 02:35:21;;;;;;;13.83;7.28;;;;;;;17.82;66.18;99187.48;263269;1093;115475;-69
2021/07/21 02:40:26;;;;;;;14.53;7.37;;;;;;;17.80;66.23;99184.07;261185;1092;115775;-68
2021/07/21 02:45:43;;;;;;;10.47;5.87;;;;;;;17.77;66.00;99189.76;263179;1091;115348;-70
2021/07/21 02:50:54;;;;;;;11.40;6.13;;;;;;;17.78;65.70;99189.61;262809;1092;114923;-70
2021/07/21 02:56:19;;;;;;;14.60;6.67;;;;;;;17.74;65.67;99191.69;262995;1092;114798;-70
2021/07/21 03:01:25;;;;;;;15.67;6.67;;;;;;;17.73;65.66;99195.38;261698;1092;115954;-66
2021/07/21 03:06:31;;;;;;;14.17;6.27;;;;;;;17.72;65.98;99196.34;263104;1093;115143;-69
2021/07/21 03:11:43;;;;;;;11.73;6.10;;;;;;;17.69;65.88;99206.53;261913;1092;115854;-70
2021/07/21 03:16:52;;;;;;;12.67;6.10;;;;;;;17.65;65.54;99197.88;261343;1091;115177;-68
2021/07/21 03:22:22;;;;;;;11.97;6.00;;;;;;;17.64;65.39;99217.72;262713;1093;115332;-71
2021/07/21 03:27:33;;;;;;;12.00;6.00;;;;;;;17.61;65.35;99212.61;263223;1092;115227;-69
2021/07/21 03:32:56;;;;;;;13.88;6.20;;;;;;;17.63;65.62;99213.34;263169;1092;115039;-69
2021/07/21 03:38:02;;;;;;;13.17;6.23;;;;;;;17.63;65.48;99205.27;262461;1093;115146;-68
2021/07/21 03:43:10;;;;;;;14.73;5.83;;;;;;;17.61;65.08;99223.38;261875;1093;115590;-68
2021/07/21 03:48:24;;;;;;;11.60;5.43;;;;;;;17.55;65.23;99226.59;263171;1093;115068;-69
2021/07/21 03:53:48;;;;;;;15.28;5.60;;;;;;;17.53;65.23;99230.41;263219;1092;114657;-71
2021/07/21 03:58:52;;;;;;;16.63;5.83;;;;;;;17.54;64.82;99237.52;263244;1092;114829;-68
2021/07/21 04:04:02;;;;;;;10.37;5.57;;;;;;;17.52;64.94;99234.94;262523;1092;115239;-68
2021/07/21 04:09:16;;;;;;;14.83;6.43;;;;;;;17.52;65.18;99239.47;263168;1093;114754;-68
2021/07/21 04:14:22;;;;;;;14.13;5.87;;;;;;;17.50;64.90;99248.54;262159;1093;115454;-72
2021/07/21 04:19:48;;;;;;;15.80;6.53;;;;;;;17.49;64.84;99262.11;263134;1093;115072;-69
2021/07/21 04:24:56;;;;;;;11.27;5.37;;;;;;;17.47;64.90;99261.41;263015;1093;115154;-68
2021/07/21 04:30:00;;;;;;;11.90;5.20;;;;;;;17.50;65.25;99258.45;263139;1092;114842;-67
2021/07/21 04:35:09;;;;;;;13.87;5.77;;;;;;;17.53;65.22;99260.88;263252;1093;115116;-66
2021/07/21 04:40:18;;;;;;;10.77;5.50;;;;;;;17.56;64.75;99267.81;262916;1093;114653;-66
2021/07/21 04:45:48;;;;;;;10.25;5.53;;;;;;;17.58;65.02;99277.47;263152;1093;114805;-66
2021/07/21 04:50:54;;;;;;;12.57;5.63;;;;;;;17.58;64.51;99285.54;263168;1092;114414;-67
2021/07/21 04:55:59;;;;;;;12.23;5.37;;;;;;;17.60;64.44;99283.58;262800;1093;115664;-67
2021/07/21 05:01:04;;;;;;;13.30;5.33;;;;;;;17.59;64.41;99295.31;261782;1093;115220;-67
2021/07/21 05:06:14;;;;;;;16.70;11.37;;;;;;;17.73;65.80;99294.98;261300;1092;115860;-66
2021/07/21 05:11:42;;;;;;;13.57;7.37;;;;;;;18.50;67.11;99293.55;261697;1092;116607;-67
2021/07/21 05:16:50;;;;;;;10.10;6.10;;;;;;;19.07;66.46;99289.21;261561;1093;114785;-71
2021/07/21 05:21:59;;;;;;;12.23;6.33;;;;;;;19.53;66.08;99292.98;261014;1092;114614;-69
2021/07/21 05:27:09;;;;;;;26.30;18.30;;;;;;;19.72;65.12;99291.25;260949;1093;115298;-70
2021/07/21 05:32:18;;;;;;;13.00;9.10;;;;;;;19.85;64.34;99299.88;261695;1091;116119;-69
2021/07/21 05:37:56;;;;;;;15.07;7.93;;;;;;;19.89;64.23;99303.13;261183;1093;114914;-68
2021/07/21 05:43:05;;;;;;;11.33;6.73;;;;;;;19.89;63.13;99306.67;260913;1093;115915;-69
2021/07/21 05:48:18;;;;;;;10.50;6.17;;;;;;;19.94;63.33;99303.52;261299;1091;114982;-67
2021/07/21 05:53:43;;;;;;;;;;;;;;;19.91;63.18;99301.98;261264;1092;115182;-69
2021/07/21 05:58:53;;;;;;;11.80;6.73;;;;;;;19.80;62.17;99316.53;261324;1092;102910;-70
2021/07/21 06:03:59;;;;;;;16.80;7.10;;;;;;;19.83;62.74;99316.21;261024;1092;114571;-69
2021/07/21 06:09:12;;;;;;;18.35;6.58;;;;;;;19.86;62.80;99328.58;260970;1093;114790;-69
2021/07/21 06:14:31;;;;;;;17.00;6.87;;;;;;;19.91;62.61;99322.75;261152;1094;114477;-69
2021/07/21 06:19:40;;;;;;;12.47;7.23;;;;;;;19.95;61.99;99326.85;261133;1092;119526;-70
2021/07/21 06:24:49;;;;;;;11.67;6.00;;;;;;;19.84;61.73;99333.30;260970;1093;115243;-70
2021/07/21 06:30:08;;;;;;;13.97;6.57;;;;;;;19.71;61.81;99332.76;261308;1093;118283;-70
2021/07/21 06:35:16;;;;;;;15.13;6.50;;;;;;;19.71;62.18;99344.41;261452;1092;114886;-68
2021/07/21 06:40:24;;;;;;;10.47;5.90;;;;;;;19.65;61.77;99344.14;261106;1092;114980;-70
2021/07/21 06:45:34;;;;;;;13.93;5.43;;;;;;;19.65;61.69;99357.64;261211;1093;115331;-67
2021/07/21 06:50:50;;;;;;;10.63;5.87;;;;;;;19.68;62.21;99358.20;261008;1093;114476;-68
2021/07/21 06:56:00;;;;;;;11.33;5.63;;;;;;;19.78;61.74;99361.73;261252;1093;116782;-68
2021/07/21 07:01:14;;;;;;;15.75;7.08;;;;;;;19.79;61.79;99363.42;261291;1093;115504;-67
2021/07/21 07:06:42;;;;;;;17.80;7.83;;;;;;;19.77;61.68;99361.89;261424;1091;114732;-68
2021/07/21 07:12:24;;;;;;;16.57;8.10;;;;;;;19.69;61.54;99359.05;261121;1092;116264;-69
2021/07/21 07:17:31;;;;;;;18.43;8.27;;;;;;;19.64;61.76;99364.05;261328;1093;114812;-69
2021/07/21 07:22:39;;;;;;;17.50;7.90;;;;;;;19.63;61.84;99365.87;261358;1092;115151;-68
2021/07/21 07:27:45;;;;;;;41.17;30.07;;;;;;;19.74;62.34;99367.58;261343;1093;114909;-69
2021/07/21 07:32:50;;;;;;;132.83;91.37;;;;;;;19.87;61.93;99369.94;261334;1092;115790;-69
2021/07/21 07:38:03;;;;;;;93.37;64.80;;;;;;;19.95;62.07;99364.67;261220;1092;115231;-68
2021/07/21 07:43:13;;;;;;;16.97;11.07;;;;;;;20.03;62.15;99365.63;261240;1093;116985;-69
2021/07/21 07:48:28;;;;;;;16.27;7.83;;;;;;;20.14;62.08;99363.73;261093;1093;115745;-69
2021/07/21 07:53:37;;;;;;;13.73;6.60;;;;;;;20.18;61.89;99366.02;261113;1093;114790;-68
2021/07/21 07:58:42;;;;;;;13.97;6.67;;;;;;;20.26;61.90;99365.27;261202;1095;115102;-69
2021/07/21 08:03:53;;;;;;;12.13;6.60;;;;;;;20.32;61.97;99364.67;261393;1092;114704;-69
2021/07/21 08:08:57;;;;;;;10.88;6.30;;;;;;;20.36;61.95;99366.07;263085;1093;115111;-69
2021/07/21 08:14:00;;;;;;;18.75;7.38;;;;;;;20.38;61.78;99368.61;263128;1092;115580;-70
2021/07/21 08:19:04;;;;;;;18.60;6.37;;;;;;;20.43;61.75;99363.63;263076;1093;115946;-70
2021/07/21 08:24:07;;;;;;;10.38;6.00;;;;;;;20.50;61.85;99360.19;262776;1093;114783;-70
2021/07/21 08:29:11;;;;;;;12.95;6.35;;;;;;;20.57;62.15;99360.44;263158;1093;115432;-69
2021/07/21 08:34:15;;;;;;;12.78;5.83;;;;;;;20.63;61.71;99369.81;263141;1093;117504;-68
2021/07/21 08:39:19;;;;;;;13.50;5.30;;;;;;;20.65;61.55;99365.09;263037;1092;115856;-68
2021/07/21 08:44:22;;;;;;;238.23;169.90;;;;;;;20.73;61.61;99362.49;262940;1092;116488;-70
2021/07/21 08:49:30;;;;;;;15.03;8.20;;;;;;;20.81;61.15;99372.55;262094;1093;115324;-70
2021/07/21 08:54:34;;;;;;;;;;;;;;;20.89;61.51;99373.50;262748;1093;115319;-68
2021/07/21 08:59:38;;;;;;;12.77;6.23;;;;;;;20.97;61.57;99373.57;263045;1093;101073;-68
2021/07/21 09:04:42;;;;;;;12.45;5.33;;;;;;;21.02;61.24;99379.39;263111;1093;115138;-68
2021/07/21 09:09:46;;;;;;;11.95;5.98;;;;;;;21.10;61.21;99372.35;263119;1092;115220;-68
2021/07/21 09:14:50;;;;;;;6.80;4.20;;;;;;;21.18;61.16;99375.97;263097;1092;115239;-70
2021/07/21 09:19:54;;;;;;;6.38;4.58;;;;;;;21.31;61.24;99370.17;263126;1092;115209;-70
2021/07/21 09:25:12;;;;;;;8.25;4.43;;;;;;;21.43;60.96;99368.09;263145;1092;116277;-70
2021/07/21 09:30:22;;;;;;;9.03;4.45;;;;;;;21.55;61.01;99376.84;263155;1091;114606;-69
2021/07/21 09:35:35;;;;;;;10.78;4.30;;;;;;;21.72;60.77;99374.09;263247;1093;115398;-71
2021/07/21 09:40:43;;;;;;;6.23;4.10;;;;;;;21.81;60.33;99382.30;262875;1092;116008;-68
2021/07/21 09:45:48;;;;;;;8.33;3.77;;;;;;;21.81;60.38;99383.14;263137;1092;114845;-70
2021/07/21 09:50:51;;;;;;;8.90;4.17;;;;;;;21.80;59.73;99386.84;263119;1093;115229;-69
2021/07/21 09:55:58;;;;;;;8.10;4.25;;;;;;;21.81;59.59;99380.43;263102;1093;115035;-69
2021/07/21 10:01:03;;;;;;;5.73;3.57;;;;;;;21.81;59.02;99382.30;263119;1092;114958;-69
2021/07/21 10:06:09;;;;;;;7.87;3.77;;;;;;;21.80;58.71;99381.42;261606;1093;115797;-70
2021/07/21 10:11:24;;;;;;;13.17;3.60;;;;;;;21.82;58.54;99378.56;262139;1091;114686;-69
2021/07/21 10:16:44;;;;;;;6.23;3.63;;;;;;;21.84;58.48;99376.53;263100;1092;116195;-71
2021/07/21 10:21:57;;;;;;;8.25;3.90;;;;;;;21.89;58.18;99369.63;263039;1093;115005;-68
2021/07/21 10:27:02;;;;;;;7.67;3.40;;;;;;;22.14;58.42;99377.91;263159;1092;115210;-70
2021/07/21 10:32:07;;;;;;;8.97;4.30;;;;;;;22.42;57.82;99371.32;263123;1092;116180;-70
2021/07/21 10:37:11;;;;;;;5.83;3.93;;;;;;;22.73;57.54;99381.61;262822;1093;114913;-71
2021/07/21 10:42:16;;;;;;;;;;;;;;;23.02;57.34;99377.63;263159;1093;114878;-68
2021/07/21 10:47:26;;;;;;;7.63;3.70;;;;;;;23.17;56.58;99372.42;263350;1092;102420;-72
2021/07/21 10:52:49;;;;;;;11.00;4.90;;;;;;;23.21;56.31;99377.34;263195;1092;114555;-68
2021/07/21 11:03:31;;;;;;;6.40;4.07;;;;;;;23.34;55.59;99377.69;262309;1092;117817;-70
2021/07/21 11:08:46;;;;;;;5.50;3.43;;;;;;;23.45;55.74;99364.79;263071;1093;114842;-72
2021/07/21 11:13:57;;;;;;;6.80;3.35;;;;;;;23.45;54.73;99367.51;263206;1092;114582;-68
2021/07/21 11:19:24;;;;;;;5.80;3.93;;;;;;;23.53;54.12;99367.49;263198;1091;114829;-70
2021/07/21 11:24:29;;;;;;;9.83;4.03;;;;;;;23.71;54.35;99361.90;263089;1093;127652;-70
2021/07/21 11:29:35;;;;;;;9.30;4.20;;;;;;;24.01;54.43;99354.89;263227;1093;115086;-68
2021/07/21 11:34:41;;;;;;;7.43;3.60;;;;;;;24.30;53.78;99346.98;263154;1093;114927;-71
2021/07/21 11:39:53;;;;;;;4.83;3.27;;;;;;;24.35;52.95;99349.17;262642;1093;116041;-70
2021/07/21 11:45:06;;;;;;;77.90;56.67;;;;;;;24.44;52.97;99353.59;261812;1092;114770;-71
2021/07/21 11:50:11;;;;;;;8.73;5.37;;;;;;;24.49;52.53;99361.22;263209;1093;114981;-70
2021/07/21 11:55:14;;;;;;;7.63;3.57;;;;;;;24.53;51.84;99341.66;262997;1092;116295;-72
2021/07/21 12:00:22;;;;;;;7.18;3.60;;;;;;;24.41;51.28;99347.66;263187;1092;115843;-71
2021/07/21 12:05:27;;;;;;;8.77;3.70;;;;;;;24.21;50.90;99347.19;263251;1093;115548;-72
2021/07/21 12:10:43;;;;;;;6.97;3.97;;;;;;;24.03;50.88;99350.98;263106;1093;114361;-71
2021/07/21 12:15:57;;;;;;;44.63;34.18;;;;;;;23.92;51.03;99356.80;263224;1092;114792;-70
2021/07/21 12:21:08;;;;;;;9.60;5.23;;;;;;;23.80;51.52;99360.88;263172;1092;115614;-71
2021/07/21 12:26:11;;;;;;;6.40;4.10;;;;;;;23.66;51.47;99365.11;263110;1092;115067;-70
2021/07/21 12:31:25;;;;;;;10.75;4.18;;;;;;;23.54;51.11;99363.78;263173;1092;115238;-70
2021/07/21 12:36:28;;;;;;;6.03;3.60;;;;;;;23.42;51.15;99368.69;263246;1093;115418;-71
2021/07/21 12:41:32;;;;;;;7.43;3.95;;;;;;;23.33;51.30;99359.67;263278;1092;115598;-72
2021/07/21 12:46:35;;;;;;;10.58;4.03;;;;;;;23.31;51.05;99359.02;263179;1092;114849;-70
2021/07/21 12:51:39;;;;;;;10.33;6.18;;;;;;;23.39;51.40;99355.44;263124;1093;115609;-70
2021/07/21 12:56:45;;;;;;;10.15;4.93;;;;;;;23.68;51.84;99349.53;263095;1093;115304;-73
2021/07/21 13:01:49;;;;;;;31.10;20.33;;;;;;;24.02;51.89;99345.73;263139;1092;114919;-72
2021/07/21 13:07:01;;;;;;;7.43;5.35;;;;;;;24.18;51.39;99342.94;263183;1093;116732;-69
2021/07/21 13:12:15;;;;;;;9.07;5.53;;;;;;;24.50;52.19;99339.28;263167;1093;115091;-69
2021/07/21 13:17:22;;;;;;;10.63;5.48;;;;;;;25.00;51.93;99335.27;263212;1093;115002;-70
2021/07/21 13:22:26;;;;;;;6.27;4.33;;;;;;;25.40;50.84;99338.72;263147;1092;115852;-68
2021/07/21 13:27:30;;;;;;;6.15;3.70;;;;;;;25.34;49.71;99344.05;262799;1092;115037;-69
2021/07/21 13:32:34;;;;;;;7.55;3.88;;;;;;;25.05;48.93;99353.78;262624;1092;115166;-69
2021/07/21 13:37:37;;;;;;;5.50;3.85;;;;;;;24.76;48.85;99352.60;263150;1093;116540;-69
2021/07/21 13:42:41;;;;;;;128.58;99.88;;;;;;;24.49;48.79;99353.05;263182;1092;115073;-69
2021/07/21 13:47:44;;;;;;;20.28;14.08;;;;;;;24.25;49.03;99356.69;263313;1093;116860;-69
2021/07/21 13:53:02;;;;;;;7.75;5.08;;;;;;;24.06;49.09;99352.52;263140;1090;115443;-68
2021/07/21 13:58:08;;;;;;;11.97;6.67;;;;;;;23.92;48.84;99347.80;262726;1092;114556;-69
2021/07/21 14:03:20;;;;;;;185.27;127.27;;;;;;;23.88;49.39;99346.42;263038;1093;115590;-70
2021/07/21 14:08:24;;;;;;;12.47;8.07;;;;;;;24.18;49.27;99347.53;263167;1092;116089;-70
2021/07/21 14:13:27;;;;;;;8.60;4.85;;;;;;;24.65;49.93;99344.81;263081;1092;116763;-69
2021/07/21 14:18:31;;;;;;;8.03;4.48;;;;;;;25.08;49.77;99342.52;262970;1093;115638;-68
2021/07/21 14:23:35;;;;;;;6.73;4.63;;;;;;;25.40;49.46;99344.17;263166;1093;115642;-70
2021/07/21 14:28:39;;;;;;;;;;;;;;;25.70;49.33;99341.53;263128;1093;115936;-70
2021/07/21 14:33:43;;;;;;;7.63;4.33;;;;;;;25.88;49.43;99335.75;263194;1093;101931;-68
2021/07/21 14:38:47;;;;;;;10.50;4.88;;;;;;;25.90;48.76;99339.15;263200;1092;114732;-69
2021/07/21 14:43:52;;;;;;;8.60;3.67;;;;;;;25.80;48.36;99338.58;263180;1092;116086;-72
2021/07/21 14:48:55;;;;;;;5.23;3.47;;;;;;;25.66;48.31;99337.48;263159;1093;114729;-71
2021/07/21 14:53:59;;;;;;;11.05;4.53;;;;;;;25.41;48.07;99336.87;262549;1092;115447;-70
2021/07/21 14:59:03;;;;;;;38.90;29.33;;;;;;;25.14;47.76;99341.00;262298;1092;115745;-70
2021/07/21 15:04:08;;;;;;;8.15;5.30;;;;;;;24.95;47.88;99331.38;263220;1092;115733;-71
2021/07/21 15:09:12;;;;;;;8.47;4.10;;;;;;;24.81;47.59;99333.00;263002;1092;115524;-71
2021/07/21 15:14:15;;;;;;;7.38;3.95;;;;;;;24.61;48.41;99323.59;263110;1092;115572;-70
2021/07/21 15:19:19;;;;;;;11.05;5.45;;;;;;;24.51;48.21;99332.81;263123;1093;114618;-70
2021/07/21 15:24:23;;;;;;;9.15;7.58;;;;;;;24.44;48.21;99331.83;262916;1092;114876;-69
2021/07/21 15:29:28;;;;;;;8.55;4.48;;;;;;;24.34;48.16;99342.04;263128;1093;114591;-67
2021/07/21 15:34:31;;;;;;;6.67;3.67;;;;;;;24.25;48.16;99338.52;262759;1093;115363;-66
2021/07/21 15:39:36;;;;;;;10.90;4.28;;;;;;;24.18;47.99;99337.50;263209;1093;115105;-71
2021/07/21 15:44:39;;;;;;;87.70;71.10;;;;;;;24.10;47.83;99333.97;263133;1092;115000;-69
2021/07/21 15:49:43;;;;;;;8.85;5.75;;;;;;;24.02;47.70;99340.30;262349;1092;115859;-68
2021/07/21 15:54:47;;;;;;;7.48;3.68;;;;;;;23.95;47.55;99331.98;262293;1093;115498;-67
2021/07/21 15:59:50;;;;;;;4.88;3.13;;;;;;;23.90;47.60;99338.95;263307;1092;114458;-69
2021/07/21 16:04:55;;;;;;;6.85;3.23;;;;;;;23.87;47.42;99340.14;262751;1092;114709;-68
2021/07/21 16:09:58;;;;;;;;;;;;;;;23.81;47.92;99340.83;263085;1092;115996;-70
2021/07/21 16:15:13;;;;;;;13.67;5.10;;;;;;;23.74;48.18;99337.10;263174;1092;101158;-69
2021/07/21 16:20:17;;;;;;;12.73;5.97;;;;;;;23.67;48.53;99347.78;262799;1093;115402;-69
2021/07/21 16:25:27;;;;;;;24.63;4.55;;;;;;;23.61;48.59;99352.05;262013;1092;116137;-68
2021/07/21 16:30:30;;;;;;;10.30;4.40;;;;;;;23.60;48.75;99335.90;263117;1092;115790;-68
2021/07/21 16:35:34;;;;;;;7.80;3.63;;;;;;;23.54;48.94;99347.48;263180;1093;114905;-68
2021/07/21 16:40:38;;;;;;;17.28;7.05;;;;;;;23.54;49.12;99350.20;262939;1092;115156;-69
2021/07/21 16:45:42;;;;;;;7.55;3.53;;;;;;;23.49;49.15;99350.69;263041;1093;115271;-69
2021/07/21 16:50:45;;;;;;;36.15;26.23;;;;;;;23.49;49.16;99355.28;263061;1092;114810;-69
2021/07/21 16:55:50;;;;;;;14.23;7.70;;;;;;;23.45;49.53;99357.48;263140;1092;115778;-70
2021/07/21 17:00:54;;;;;;;11.13;4.37;;;;;;;23.42;49.69;99365.13;263082;1092;115290;-69
2021/07/21 17:06:04;;;;;;;10.77;4.17;;;;;;;23.40;49.73;99372.58;262041;1093;115040;-70
2021/07/21 17:11:09;;;;;;;9.70;4.10;;;;;;;23.38;49.91;99367.33;262748;1093;116640;-70
2021/07/21 17:16:16;;;;;;;14.63;4.30;;;;;;;23.38;50.21;99359.19;262726;1093;114827;-71
2021/07/21 17:21:20;;;;;;;11.80;7.60;;;;;;;23.37;50.22;99373.80;263134;1092;115475;-71
2021/07/21 17:26:24;;;;;;;20.08;10.08;;;;;;;23.37;50.34;99371.08;263111;1092;115095;-70
2021/07/21 17:31:28;;;;;;;9.48;4.40;;;;;;;23.32;50.35;99385.14;262427;1093;115257;-69
2021/07/21 17:36:32;;;;;;;170.13;111.18;;;;;;;23.26;50.64;99388.53;263090;1092;115330;-70
2021/07/21 17:41:35;;;;;;;17.85;9.75;;;;;;;23.24;50.63;99384.30;262395;1093;115685;-69
2021/07/21 17:46:39;;;;;;;25.38;17.85;;;;;;;23.17;50.47;99389.55;261180;1092;114814;-69
2021/07/21 17:51:43;;;;;;;18.23;11.13;;;;;;;23.12;50.69;99394.63;263124;1092;115980;-69
2021/07/21 17:56:46;;;;;;;13.83;6.33;;;;;;;23.09;50.77;99390.37;261616;1093;115364;-70
2021/07/21 18:01:51;;;;;;;8.85;5.70;;;;;;;23.05;50.56;99399.87;261784;1093;114679;-70
2021/07/21 18:06:54;;;;;;;12.15;6.20;;;;;;;23.00;50.10;99395.97;263091;1092;115555;-70
2021/07/21 18:11:58;;;;;;;7.73;5.38;;;;;;;22.96;50.71;99405.44;263145;1093;115858;-70
2021/07/21 18:17:02;;;;;;;269.90;225.28;;;;;;;22.91;50.67;99411.34;263160;1092;116024;-71
2021/07/21 18:22:07;;;;;;;33.63;21.50;;;;;;;22.80;50.40;99412.50;263046;1093;115886;-70
2021/07/21 18:27:10;;;;;;;11.83;6.73;;;;;;;22.70;50.72;99414.50;263074;1092;116012;-71
2021/07/21 18:32:14;;;;;;;28.53;21.85;;;;;;;22.53;50.28;99423.58;263080;1092;115854;-71
2021/07/21 18:37:18;;;;;;;51.90;40.27;;;;;;;22.52;50.58;99424.57;263056;1092;115193;-72
2021/07/21 18:42:22;;;;;;;16.30;12.03;;;;;;;22.54;51.24;99434.26;261650;1092;116808;-71
2021/07/21 18:47:26;;;;;;;26.25;19.93;;;;;;;22.52;51.38;99430.00;262192;1091;115237;-69
2021/07/21 18:52:30;;;;;;;15.20;7.60;;;;;;;22.44;51.25;99442.52;263108;1093;116268;-69
2021/07/21 18:57:36;;;;;;;12.35;6.58;;;;;;;22.37;51.46;99443.32;263109;1093;114926;-70
2021/07/21 19:02:41;;;;;;;12.10;7.63;;;;;;;22.32;51.94;99449.23;263165;1092;115112;-68
2021/07/21 19:07:45;;;;;;;11.23;5.73;;;;;;;22.26;51.75;99452.59;263091;1093;116061;-68
2021/07/21 19:12:50;;;;;;;15.90;6.25;;;;;;;22.17;51.87;99453.53;262975;1093;116058;-71
2021/07/21 19:17:54;;;;;;;10.43;5.97;;;;;;;22.05;52.11;99461.05;263167;1093;115432;-71
2021/07/21 19:23:02;;;;;;;15.90;7.17;;;;;;;22.02;52.62;99465.95;262909;1093;114965;-70
2021/07/21 19:28:07;;;;;;;16.00;7.08;;;;;;;22.05;53.04;99462.92;261921;1092;115177;-70
2021/07/21 19:33:12;;;;;;;15.77;6.90;;;;;;;22.05;52.88;99471.91;261095;1093;114938;-68
2021/07/21 19:38:24;;;;;;;129.45;84.80;;;;;;;22.03;53.05;99473.06;260644;1093;115338;-71
2021/07/21 19:43:28;;;;;;;19.83;13.58;;;;;;;21.83;52.30;99473.23;260610;1092;115198;-70
2021/07/21 19:48:33;;;;;;;12.97;7.03;;;;;;;21.56;52.49;99473.33;261933;1087;115049;-69
2021/07/21 19:53:37;;;;;;;;;;;;;;;21.36;52.21;99480.74;262726;1095;115046;-69
2021/07/21 19:58:41;;;;;;;9.87;5.87;;;;;;;21.20;52.63;99481.41;262918;1093;102949;-69
2021/07/21 20:03:45;;;;;;;;;;;;;;;21.11;52.47;99485.86;261602;1092;114948;-69
2021/07/21 20:08:49;;;;;;;8.60;5.10;;;;;;;21.02;52.70;99484.93;261711;1092;102930;-68
2021/07/21 20:13:56;;;;;;;11.43;5.40;;;;;;;20.98;52.76;99482.66;263126;1093;115308;-71
2021/07/21 20:19:00;;;;;;;10.55;5.15;;;;;;;20.96;52.72;99492.80;260892;1095;115365;-70
2021/07/21 20:24:05;;;;;;;9.95;5.08;;;;;;;20.93;52.92;99485.83;262449;1093;115508;-69
2021/07/21 20:29:09;;;;;;;9.47;5.57;;;;;;;20.93;53.16;99487.69;261680;1092;114894;-71
2021/07/21 20:34:14;;;;;;;10.48;5.23;;;;;;;20.89;53.34;99491.67;263107;1093;114346;-71
2021/07/21 20:39:18;;;;;;;7.88;5.25;;;;;;;20.87;53.51;99496.40;261555;1093;115243;-69
2021/07/21 20:44:22;;;;;;;9.63;6.93;;;;;;;20.83;53.44;99495.84;262646;1093;115171;-69
2021/07/21 20:49:26;;;;;;;9.70;5.30;;;;;;;20.81;53.58;99500.55;262555;1093;114662;-69
2021/07/21 20:54:32;;;;;;;;;;;;;;;20.79;53.66;99499.86;262534;1093;114796;-69
2021/07/21 20:59:37;;;;;;;12.80;6.60;;;;;;;20.74;54.04;99502.14;262544;1095;103041;-68
2021/07/21 21:04:41;;;;;;;36.75;19.93;;;;;;;20.73;53.79;99503.15;262492;1093;115053;-67
2021/07/21 21:09:46;;;;;;;;;;;;;;;20.70;54.12;99487.22;262488;1093;115193;-69
2021/07/21 21:14:50;;;;;;;17.30;8.80;;;;;;;20.62;54.28;99501.48;262616;1093;101891;-70
2021/07/21 21:19:56;;;;;;;9.70;6.03;;;;;;;20.58;54.54;99507.32;262710;1094;115365;-70
2021/07/21 21:25:03;;;;;;;9.25;5.58;;;;;;;20.52;54.45;99509.63;262074;1095;115109;-69
2021/07/21 21:30:17;;;;;;;7.83;4.80;;;;;;;20.50;54.40;99499.92;262841;1093;115071;-67
2021/07/21 21:35:21;;;;;;;8.53;5.03;;;;;;;20.48;54.83;99510.90;262802;1096;115295;-67
2021/07/21 21:40:26;;;;;;;6.93;4.60;;;;;;;20.45;54.49;99508.48;262574;1095;114682;-67
2021/07/21 21:45:30;;;;;;;8.65;5.13;;;;;;;20.46;54.65;99507.48;263063;1095;115502;-68
2021/07/21 21:50:34;;;;;;;8.10;4.53;;;;;;;20.47;54.58;99511.03;262659;1094;114902;-67
2021/07/21 21:55:39;;;;;;;9.60;4.97;;;;;;;20.45;54.58;99511.19;261856;1095;114653;-68
2021/07/21 22:00:43;;;;;;;6.88;4.88;;;;;;;20.44;55.09;99514.88;262663;1095;115441;-67
2021/07/21 22:05:47;;;;;;;7.30;4.80;;;;;;;20.40;55.20;99509.91;260962;1093;114378;-68
2021/07/21 22:10:54;;;;;;;7.97;4.83;;;;;;;20.33;55.34;99515.05;262623;1093;115201;-65
2021/07/21 22:15:59;;;;;;;6.45;4.60;;;;;;;20.28;55.38;99512.80;263098;1094;117004;-66
2021/07/21 22:21:04;;;;;;;8.77;5.00;;;;;;;20.24;55.59;99511.36;263100;1096;115603;-67
2021/07/21 22:26:08;;;;;;;8.35;4.88;;;;;;;20.22;55.91;99510.66;263055;1095;114522;-68
2021/07/21 22:31:15;;;;;;;8.25;5.05;;;;;;;20.22;56.08;99512.52;263104;1096;114708;-68
2021/07/21 22:36:42;;;;;;;8.37;4.57;;;;;;;20.20;55.92;99514.50;263136;1095;114875;-68
2021/07/21 22:41:54;;;;;;;12.50;4.73;;;;;;;20.18;55.78;99511.11;263139;1094;114989;-69
2021/07/21 22:47:07;;;;;;;8.27;4.93;;;;;;;20.15;55.40;99522.20;263033;1095;116747;-67
2021/07/21 22:52:10;;;;;;;9.57;4.73;;;;;;;20.11;55.69;99508.13;263168;1092;115165;-69
2021/07/21 22:57:18;;;;;;;11.17;5.00;;;;;;;20.09;56.14;99512.81;263035;1095;114937;-69
2021/07/21 23:02:59;;;;;;;6.93;4.40;;;;;;;20.07;56.47;99515.67;263090;1095;115613;-68
2021/07/21 23:08:40;;;;;;;6.73;4.80;;;;;;;20.05;56.17;99514.11;263046;1093;115158;-68
2021/07/21 23:14:22;;;;;;;7.40;4.50;;;;;;;20.07;56.01;99512.97;263000;1093;115575;-69
2021/07/21 23:19:26;;;;;;;11.60;6.03;;;;;;;20.09;56.28;99512.81;263150;1095;114689;-69
2021/07/21 23:24:29;;;;;;;11.13;5.00;;;;;;;20.11;55.95;99518.06;263211;1094;115426;-69
2021/07/21 23:29:33;;;;;;;9.53;4.93;;;;;;;20.11;55.99;99520.77;263066;1095;115189;-69
2021/07/21 23:34:37;;;;;;;6.83;4.58;;;;;;;20.09;56.38;99513.66;262967;1094;115173;-68
2021/07/21 23:39:40;;;;;;;9.27;4.60;;;;;;;20.07;56.28;99515.67;262718;1095;114837;-68
2021/07/21 23:44:44;;;;;;;9.35;4.78;;;;;;;20.04;56.21;99512.38;263091;1096;115243;-68